createdAt,value
2019-03-20T00:00:37.293Z,4.06
2019-03-20T00:03:07.052Z,3.94
2019-03-20T00:05:36.763Z,3.91
2019-03-20T00:08:06.452Z,3.98
2019-03-20T00:10:36.163Z,3.93
2019-03-20T00:13:05.912Z,3.75
2019-03-20T00:15:35.557Z,3.72
2019-03-20T00:18:05.441Z,3.79
2019-03-20T00:20:35.082Z,3.76
2019-03-20T00:23:04.837Z,3.81
2019-03-20T00:25:34.454Z,3.91
2019-03-20T00:28:04.166Z,3.82
2019-03-20T00:30:33.781Z,3.61
2019-03-20T00:33:03.426Z,3.45
2019-03-20T00:35:33.041Z,3.41
2019-03-20T00:38:02.815Z,3.41
2019-03-20T00:40:32.434Z,3.46
2019-03-20T00:43:02.080Z,3.54
2019-03-20T00:45:31.700Z,3.64
2019-03-20T00:48:01.346Z,3.41
2019-03-20T00:50:30.964Z,3.46
2019-03-20T00:53:00.609Z,3.46
2019-03-20T00:55:30.215Z,3.54
2019-03-20T00:57:59.864Z,3.63
2019-03-20T01:00:29.550Z,3.52
2019-03-20T01:02:59.321Z,3.46
2019-03-20T01:05:29.078Z,3.41
2019-03-20T01:07:58.696Z,3.30
2019-03-20T01:10:28.476Z,3.08
2019-03-20T01:12:58.093Z,3.19
2019-03-20T01:15:27.731Z,3.11
2019-03-20T01:17:57.349Z,3.12
2019-03-20T01:20:27.062Z,3.09
2019-03-20T01:22:56.678Z,3.12
2019-03-20T01:25:26.316Z,3.21
2019-03-20T01:27:55.930Z,3.14
2019-03-20T01:30:32.652Z,3.05
2019-03-20T01:33:15.263Z,3.15
2019-03-20T01:35:44.897Z,3.06
2019-03-20T01:38:14.514Z,3.03
2019-03-20T01:40:44.169Z,2.93
2019-03-20T01:43:13.845Z,2.77
2019-03-20T01:45:43.468Z,2.82
2019-03-20T01:48:13.106Z,2.83
2019-03-20T01:50:42.724Z,2.88
2019-03-20T01:53:12.386Z,2.81
2019-03-20T01:55:41.969Z,2.80
2019-03-20T01:58:11.616Z,2.86
2019-03-20T02:00:41.293Z,2.80
2019-03-20T02:03:10.934Z,2.71
2019-03-20T02:05:40.549Z,2.53
2019-03-20T02:08:10.164Z,2.73
2019-03-20T02:10:39.797Z,2.52
2019-03-20T02:13:09.419Z,2.35
2019-03-20T02:15:39.766Z,2.48
2019-03-20T02:18:09.562Z,2.42
2019-03-20T02:20:39.274Z,2.42
2019-03-20T02:23:08.901Z,2.50
2019-03-20T02:25:38.616Z,2.65
2019-03-20T02:28:08.234Z,2.57
2019-03-20T02:30:37.873Z,2.52
2019-03-20T02:33:07.488Z,2.52
2019-03-20T02:35:50.563Z,2.57
2019-03-20T02:38:08.498Z,2.64
2019-03-20T02:40:38.114Z,2.66
2019-03-20T02:43:07.840Z,2.53
2019-03-20T02:45:37.440Z,2.58
2019-03-20T02:48:07.217Z,2.60
2019-03-20T02:50:36.832Z,2.74
2019-03-20T02:53:06.468Z,2.76
2019-03-20T02:55:36.082Z,2.62
2019-03-20T02:58:05.790Z,2.69
2019-03-20T03:00:35.425Z,2.73
2019-03-20T03:03:05.126Z,2.65
2019-03-20T03:05:34.742Z,2.56
2019-03-20T03:08:04.526Z,2.53
2019-03-20T03:10:34.148Z,2.42
2019-03-20T03:13:03.758Z,2.41
2019-03-20T03:15:33.407Z,2.39
2019-03-20T03:18:03.021Z,2.45
2019-03-20T03:20:32.660Z,2.52
2019-03-20T03:23:02.348Z,2.48
2019-03-20T03:25:31.981Z,2.45
2019-03-20T03:28:01.690Z,2.54
2019-03-20T03:30:31.305Z,2.63
2019-03-20T03:33:00.925Z,2.59
2019-03-20T03:35:30.737Z,2.42
2019-03-20T03:38:00.358Z,2.25
2019-03-20T03:40:29.995Z,2.20
2019-03-20T03:42:59.615Z,2.50
2019-03-20T03:45:29.270Z,2.40
2019-03-20T03:47:58.881Z,2.41
2019-03-20T03:50:28.536Z,2.58
2019-03-20T03:52:58.151Z,2.64
2019-03-20T03:55:27.804Z,2.59
2019-03-20T03:57:57.624Z,2.58
2019-03-20T04:00:27.307Z,2.52
2019-03-20T04:02:56.958Z,2.53
2019-03-20T04:05:26.642Z,2.51
2019-03-20T04:07:56.371Z,2.35
2019-03-20T04:10:26.001Z,2.33
2019-03-20T04:12:55.705Z,2.24
2019-03-20T04:15:25.318Z,2.15
2019-03-20T04:17:55.025Z,2.17
2019-03-20T04:20:24.645Z,2.28
2019-03-20T04:22:54.359Z,2.20
2019-03-20T04:25:23.977Z,2.25
2019-03-20T04:27:53.588Z,2.32
2019-03-20T04:30:23.230Z,2.20
2019-03-20T04:32:52.841Z,2.15
2019-03-20T04:35:22.483Z,2.21
2019-03-20T04:37:52.093Z,2.09
2019-03-20T04:40:21.799Z,2.03
2019-03-20T04:42:51.415Z,1.98
2019-03-20T04:45:21.049Z,2.03
2019-03-20T04:47:50.665Z,2.07
2019-03-20T04:50:20.444Z,1.89
2019-03-20T04:52:50.055Z,1.79
2019-03-20T04:55:19.719Z,1.81
2019-03-20T04:57:49.333Z,1.96
2019-03-20T05:00:23.633Z,2.07
2019-03-20T05:02:53.429Z,2.07
2019-03-20T05:05:23.029Z,2.10
2019-03-20T05:07:52.678Z,2.04
2019-03-20T05:10:22.291Z,1.98
2019-03-20T05:12:51.938Z,1.96
2019-03-20T05:15:21.561Z,1.99
2019-03-20T05:17:51.205Z,2.04
2019-03-20T05:20:24.176Z,2.07
2019-03-20T05:22:53.816Z,2.01
2019-03-20T05:25:23.435Z,1.82
2019-03-20T05:27:53.087Z,1.81
2019-03-20T05:30:22.707Z,1.76
2019-03-20T05:32:52.366Z,1.75
2019-03-20T05:35:21.968Z,1.91
2019-03-20T05:37:51.629Z,1.97
2019-03-20T05:40:21.251Z,2.06
2019-03-20T05:42:50.872Z,1.90
2019-03-20T05:45:21.070Z,1.80
2019-03-20T05:47:50.687Z,1.74
2019-03-20T05:50:20.404Z,1.67
2019-03-20T05:52:50.021Z,1.73
2019-03-20T05:55:19.742Z,1.79
2019-03-20T05:57:49.358Z,1.83
2019-03-20T06:00:22.149Z,1.84
2019-03-20T06:02:51.780Z,1.85
2019-03-20T06:05:21.420Z,1.85
2019-03-20T06:07:51.046Z,1.88
2019-03-20T06:10:20.659Z,1.88
2019-03-20T06:12:50.305Z,1.88
2019-03-20T06:15:19.927Z,1.91
2019-03-20T06:17:49.578Z,1.89
2019-03-20T06:20:19.195Z,1.94
2019-03-20T06:22:48.830Z,1.90
2019-03-20T06:25:21.251Z,1.72
2019-03-20T06:27:49.826Z,1.74
2019-03-20T06:30:22.768Z,1.84
2019-03-20T06:32:52.426Z,1.81
2019-03-20T06:35:22.059Z,1.84
2019-03-20T06:37:51.699Z,1.89
2019-03-20T06:40:21.391Z,1.91
2019-03-20T06:42:51.035Z,1.76
2019-03-20T06:45:21.999Z,1.68
2019-03-20T06:47:51.711Z,1.81
2019-03-20T06:50:23.147Z,1.94
2019-03-20T06:52:52.783Z,1.95
2019-03-20T06:55:22.408Z,1.96
2019-03-20T06:57:52.025Z,1.97
2019-03-20T07:00:44.218Z,2.03
2019-03-20T07:03:33.535Z,1.97
2019-03-20T07:06:21.856Z,1.89
2019-03-20T07:09:01.887Z,1.92
2019-03-20T07:11:36.091Z,1.98
2019-03-20T07:14:05.814Z,2.00
2019-03-20T07:16:35.490Z,2.01
2019-03-20T07:19:05.587Z,2.10
2019-03-20T07:21:35.194Z,2.18
2019-03-20T07:24:05.106Z,2.29
2019-03-20T07:26:34.727Z,2.34
2019-03-20T07:29:04.718Z,2.41
2019-03-20T07:31:34.437Z,2.47
2019-03-20T07:34:06.220Z,2.51
2019-03-20T07:36:35.586Z,2.56
2019-03-20T07:39:10.511Z,2.59
2019-03-20T07:41:42.570Z,2.63
2019-03-20T07:44:12.257Z,2.71
2019-03-20T07:46:41.917Z,2.78
2019-03-20T07:49:11.535Z,2.91
2019-03-20T07:51:41.176Z,2.94
2019-03-20T07:54:10.798Z,3.15
2019-03-20T07:56:40.444Z,3.03
2019-03-20T07:59:10.061Z,3.03
2019-03-20T08:01:39.681Z,2.98
2019-03-20T08:04:09.408Z,3.05
2019-03-20T08:06:39.019Z,3.16
2019-03-20T08:09:09.035Z,3.14
2019-03-20T08:11:38.726Z,3.15
2019-03-20T08:14:08.372Z,3.15
2019-03-20T08:16:37.990Z,3.20
2019-03-20T08:19:07.648Z,3.26
2019-03-20T08:21:37.258Z,3.33
2019-03-20T08:24:06.897Z,3.39
2019-03-20T08:26:36.521Z,3.46
2019-03-20T08:29:06.166Z,3.42
2019-03-20T08:31:35.787Z,3.49
2019-03-20T08:34:07.091Z,3.54
2019-03-20T08:36:36.719Z,3.60
2019-03-20T08:39:07.776Z,3.72
2019-03-20T08:41:37.417Z,3.76
2019-03-20T08:44:09.918Z,3.77
2019-03-20T08:46:39.604Z,3.82
2019-03-20T08:49:09.278Z,3.85
2019-03-20T08:51:38.971Z,3.92
2019-03-20T08:54:08.578Z,4.00
2019-03-20T08:56:38.278Z,4.07
2019-03-20T08:59:07.936Z,4.09
2019-03-20T09:01:37.624Z,4.11
2019-03-20T09:04:07.221Z,4.15
2019-03-20T09:06:36.867Z,4.23
2019-03-20T09:09:08.365Z,4.35
2019-03-20T09:11:38.070Z,4.39
2019-03-20T09:14:07.716Z,4.41
2019-03-20T09:16:37.406Z,4.49
2019-03-20T09:19:07.007Z,4.55
2019-03-20T09:21:36.649Z,4.62
2019-03-20T09:24:06.409Z,4.73
2019-03-20T09:26:36.058Z,4.89
2019-03-20T09:29:05.681Z,5.01
2019-03-20T09:31:35.299Z,5.16
2019-03-20T09:34:06.488Z,5.17
2019-03-20T09:36:43.123Z,5.32
2019-03-20T09:39:08.594Z,5.39
2019-03-20T09:41:38.215Z,5.53
2019-03-20T09:44:07.863Z,5.55
2019-03-20T09:46:37.481Z,5.61
2019-03-20T09:49:07.197Z,5.75
2019-03-20T09:51:36.820Z,5.81
2019-03-20T09:54:06.461Z,5.78
2019-03-20T09:56:36.077Z,6.01
2019-03-20T09:59:05.809Z,6.05
2019-03-20T10:01:35.424Z,6.08
2019-03-20T10:04:05.522Z,6.23
2019-03-20T10:06:35.143Z,6.36
2019-03-20T10:09:07.545Z,6.40
2019-03-20T10:11:37.226Z,6.47
2019-03-20T10:14:06.882Z,6.47
2019-03-20T10:16:36.514Z,6.69
2019-03-20T10:19:06.185Z,6.75
2019-03-20T10:21:35.814Z,6.80
2019-03-20T10:24:07.143Z,6.95
2019-03-20T10:26:36.791Z,6.92
2019-03-20T10:29:08.747Z,6.87
2019-03-20T10:31:38.393Z,6.73
2019-03-20T10:34:08.011Z,6.75
2019-03-20T10:36:37.653Z,6.87
2019-03-20T10:39:08.589Z,7.04
2019-03-20T10:41:38.324Z,7.35
2019-03-20T10:44:07.975Z,7.50
2019-03-20T10:46:41.080Z,7.47
2019-03-20T10:49:10.745Z,7.72
2019-03-20T10:51:40.418Z,7.81
2019-03-20T10:54:10.074Z,7.87
2019-03-20T10:56:39.782Z,7.90
2019-03-20T10:59:09.434Z,7.85
2019-03-20T11:01:42.701Z,7.84
2019-03-20T11:04:10.635Z,7.73
2019-03-20T11:06:40.301Z,7.69
2019-03-20T11:09:18.074Z,7.87
2019-03-20T11:11:41.503Z,7.95
2019-03-20T11:14:11.191Z,8.02
2019-03-20T11:16:40.854Z,8.15
2019-03-20T11:19:10.558Z,8.17
2019-03-20T11:21:40.343Z,8.36
2019-03-20T11:24:10.094Z,8.47
2019-03-20T11:26:39.748Z,8.79
2019-03-20T11:29:09.428Z,8.73
2019-03-20T11:31:39.085Z,8.51
2019-03-20T11:34:08.768Z,8.86
2019-03-20T11:36:38.493Z,9.03
2019-03-20T11:39:10.408Z,9.22
2019-03-20T11:41:40.125Z,9.31
2019-03-20T11:44:09.787Z,9.17
2019-03-20T11:46:39.462Z,9.26
2019-03-20T11:49:09.266Z,9.45
2019-03-20T11:51:38.937Z,9.65
2019-03-20T11:54:08.598Z,9.73
2019-03-20T11:56:38.354Z,9.65
2019-03-20T11:59:08.033Z,9.83
2019-03-20T12:01:37.785Z,10.07
2019-03-20T12:04:07.519Z,10.25
2019-03-20T12:06:37.212Z,10.40
2019-03-20T12:09:09.455Z,10.85
2019-03-20T12:11:45.832Z,11.02
2019-03-20T12:14:10.557Z,11.32
2019-03-20T12:16:40.290Z,10.99
2019-03-20T12:19:09.952Z,10.84
2019-03-20T12:21:39.661Z,10.84
2019-03-20T12:24:09.339Z,11.19
2019-03-20T12:26:39.074Z,11.67
2019-03-20T12:29:08.772Z,11.94
2019-03-20T12:31:38.496Z,11.89
2019-03-20T12:34:08.188Z,11.84
2019-03-20T12:36:37.854Z,12.24
2019-03-20T12:39:09.050Z,12.57
2019-03-20T12:41:38.718Z,12.51
2019-03-20T12:44:08.414Z,12.76
2019-03-20T12:46:41.713Z,12.89
2019-03-20T12:49:09.501Z,12.84
2019-03-20T12:51:39.172Z,12.55
2019-03-20T12:54:08.869Z,12.64
2019-03-20T12:56:38.538Z,12.66
2019-03-20T12:59:08.226Z,12.85
2019-03-20T13:01:37.895Z,12.94
2019-03-20T13:04:07.575Z,13.21
2019-03-20T13:06:37.260Z,13.53
2019-03-20T13:09:08.800Z,13.74
2019-03-20T13:11:38.468Z,13.83
2019-03-20T13:14:08.269Z,13.70
2019-03-20T13:16:37.959Z,14.05
2019-03-20T13:19:07.692Z,14.11
2019-03-20T13:21:37.379Z,14.27
2019-03-20T13:24:07.181Z,14.13
2019-03-20T13:26:36.864Z,14.24
2019-03-20T13:29:06.528Z,14.46
2019-03-20T13:31:36.278Z,14.70
2019-03-20T13:34:06.009Z,14.92
2019-03-20T13:36:35.719Z,15.12
2019-03-20T13:39:07.292Z,15.01
2019-03-20T13:41:36.953Z,15.18
2019-03-20T13:44:06.631Z,15.01
2019-03-20T13:46:36.295Z,14.93
2019-03-20T13:49:05.987Z,14.97
2019-03-20T13:51:35.642Z,15.32
2019-03-20T13:54:07.310Z,15.73
2019-03-20T13:56:36.970Z,15.86
2019-03-20T13:59:06.652Z,15.99
2019-03-20T14:01:36.316Z,16.12
2019-03-20T14:04:06.144Z,16.18
2019-03-20T14:06:35.801Z,16.54
2019-03-20T14:09:08.285Z,16.73
2019-03-20T14:11:37.936Z,16.74
2019-03-20T14:14:07.597Z,16.84
2019-03-20T14:16:37.279Z,16.58
2019-03-20T14:19:06.933Z,16.77
2019-03-20T14:21:36.625Z,16.81
2019-03-20T14:24:07.995Z,17.03
2019-03-20T14:26:37.690Z,17.13
2019-03-20T14:29:07.357Z,17.23
2019-03-20T14:31:37.317Z,17.46
2019-03-20T14:34:06.978Z,17.78
2019-03-20T14:36:36.693Z,18.47
2019-03-20T14:39:08.357Z,19.07
2019-03-20T14:41:38.024Z,19.48
2019-03-20T14:44:07.713Z,20.29
2019-03-20T14:46:37.381Z,20.75
2019-03-20T14:49:07.067Z,20.73
2019-03-20T14:51:36.731Z,21.28
2019-03-20T14:54:08.136Z,22.04
2019-03-20T14:56:37.805Z,21.31
2019-03-20T14:59:07.477Z,21.66
2019-03-20T15:01:37.138Z,21.16
2019-03-20T15:04:08.468Z,22.26
2019-03-20T15:06:38.129Z,22.05
2019-03-20T15:09:09.550Z,20.72
2019-03-20T15:11:39.208Z,20.62
2019-03-20T15:14:08.897Z,20.95
2019-03-20T15:16:38.566Z,21.66
2019-03-20T15:19:08.244Z,22.28
2019-03-20T15:21:37.911Z,22.45
2019-03-20T15:24:07.616Z,22.17
2019-03-20T15:26:37.279Z,22.71
2019-03-20T15:29:06.943Z,22.90
2019-03-20T15:31:36.637Z,23.11
2019-03-20T15:34:06.299Z,23.36
2019-03-20T15:36:35.987Z,23.66
2019-03-20T15:39:07.929Z,23.71
2019-03-20T15:41:37.629Z,23.61
2019-03-20T15:44:07.293Z,24.03
2019-03-20T15:46:36.979Z,23.67
2019-03-20T15:49:06.643Z,24.12
2019-03-20T15:51:36.334Z,24.59
2019-03-20T15:54:06.330Z,25.23
2019-03-20T15:56:36.063Z,25.52
2019-03-20T15:59:05.799Z,25.88
2019-03-20T16:01:35.465Z,24.97
2019-03-20T16:04:06.170Z,25.04
2019-03-20T16:06:35.978Z,25.39
2019-03-20T16:09:08.979Z,25.48
2019-03-20T16:11:38.638Z,24.66
2019-03-20T16:14:08.329Z,24.76
2019-03-20T16:16:37.986Z,24.85
2019-03-20T16:19:07.743Z,24.39
2019-03-20T16:21:37.408Z,24.13
2019-03-20T16:24:07.235Z,23.37
2019-03-20T16:26:36.910Z,22.33
2019-03-20T16:29:06.671Z,20.19
2019-03-20T16:31:36.355Z,18.78
2019-03-20T16:34:06.099Z,17.29
2019-03-20T16:36:35.836Z,16.37
2019-03-20T16:39:08.578Z,15.58
2019-03-20T16:41:38.267Z,15.03
2019-03-20T16:44:07.969Z,14.48
2019-03-20T16:46:37.696Z,14.31
2019-03-20T16:49:07.362Z,14.08
2019-03-20T16:51:37.054Z,13.87
2019-03-20T16:54:06.717Z,13.64
2019-03-20T16:56:36.408Z,13.53
2019-03-20T16:59:06.139Z,13.34
2019-03-20T17:01:35.825Z,13.27
2019-03-20T17:04:07.374Z,13.02
2019-03-20T17:06:37.062Z,12.89
2019-03-20T17:09:08.122Z,12.86
2019-03-20T17:11:38.699Z,12.76
2019-03-20T17:14:08.566Z,12.63
2019-03-20T17:16:42.727Z,12.54
2019-03-20T17:19:09.655Z,12.51
2019-03-20T17:21:39.317Z,12.38
2019-03-20T17:24:09.009Z,12.27
2019-03-20T17:26:38.693Z,12.18
2019-03-20T17:29:09.110Z,12.10
2019-03-20T17:31:39.164Z,12.06
2019-03-20T17:34:08.856Z,12.03
2019-03-20T17:36:38.509Z,11.83
2019-03-20T17:39:10.235Z,11.60
2019-03-20T17:41:39.889Z,11.61
2019-03-20T17:44:09.587Z,11.52
2019-03-20T17:46:40.091Z,11.57
2019-03-20T17:49:09.845Z,11.39
2019-03-20T17:51:39.502Z,11.25
2019-03-20T17:54:09.227Z,11.10
2019-03-20T17:56:38.920Z,11.01
2019-03-20T17:59:08.689Z,11.00
2019-03-20T18:01:38.361Z,10.91
2019-03-20T18:04:08.014Z,10.94
2019-03-20T18:06:37.705Z,10.76
2019-03-20T18:09:09.002Z,10.71
2019-03-20T18:11:47.160Z,10.69
2019-03-20T18:14:10.141Z,10.51
2019-03-20T18:16:39.832Z,10.54
2019-03-20T18:19:09.488Z,10.54
2019-03-20T18:21:39.179Z,10.54
2019-03-20T18:24:08.847Z,10.35
2019-03-20T18:26:38.531Z,10.28
2019-03-20T18:29:08.194Z,10.14
2019-03-20T18:31:45.690Z,10.17
2019-03-20T18:34:09.354Z,10.10
2019-03-20T18:36:39.041Z,10.01
2019-03-20T18:39:09.165Z,9.97
2019-03-20T18:41:38.846Z,9.85
2019-03-20T18:44:08.443Z,9.89
2019-03-20T18:46:38.110Z,9.70
2019-03-20T18:49:07.732Z,9.82
2019-03-20T18:51:37.346Z,9.71
2019-03-20T18:54:07.058Z,9.46
2019-03-20T18:56:36.803Z,9.46
2019-03-20T18:59:06.520Z,9.29
2019-03-20T19:01:36.146Z,9.42
2019-03-20T19:04:09.144Z,9.30
2019-03-20T19:06:38.909Z,9.47
2019-03-20T19:09:10.493Z,9.21
2019-03-20T19:11:40.191Z,9.17
2019-03-20T19:14:09.825Z,9.20
2019-03-20T19:16:39.440Z,9.11
2019-03-20T19:19:09.202Z,9.02
2019-03-20T19:21:38.957Z,9.19
2019-03-20T19:24:08.582Z,9.02
2019-03-20T19:26:38.235Z,8.86
2019-03-20T19:29:07.858Z,8.79
2019-03-20T19:31:37.503Z,8.71
2019-03-20T19:34:07.147Z,8.61
2019-03-20T19:36:36.811Z,8.47
2019-03-20T19:39:08.568Z,8.56
2019-03-20T19:41:38.279Z,8.58
2019-03-20T19:44:07.967Z,8.46
2019-03-20T19:46:37.663Z,8.42
2019-03-20T19:49:07.372Z,8.38
2019-03-20T19:51:37.035Z,8.38
2019-03-20T19:54:06.803Z,8.40
2019-03-20T19:56:36.462Z,8.30
2019-03-20T19:59:06.183Z,8.23
2019-03-20T20:01:35.870Z,8.15
2019-03-20T20:04:07.324Z,8.21
2019-03-20T20:06:37.023Z,8.17
2019-03-20T20:09:08.483Z,8.29
2019-03-20T20:11:38.241Z,8.35
2019-03-20T20:14:07.962Z,8.21
2019-03-20T20:16:37.588Z,8.41
2019-03-20T20:19:07.408Z,8.45
2019-03-20T20:21:37.030Z,8.36
2019-03-20T20:24:06.711Z,8.12
2019-03-20T20:26:36.356Z,7.95
2019-03-20T20:29:06.128Z,7.85
2019-03-20T20:31:35.775Z,7.68
2019-03-20T20:34:07.038Z,8.07
2019-03-20T20:36:36.752Z,7.99
2019-03-20T20:39:07.943Z,8.03
2019-03-20T20:41:37.668Z,8.03
2019-03-20T20:44:07.283Z,8.19
2019-03-20T20:46:36.926Z,7.97
2019-03-20T20:49:06.547Z,7.70
2019-03-20T20:51:36.263Z,7.54
2019-03-20T20:54:06.018Z,7.67
2019-03-20T20:56:35.677Z,7.88
2019-03-20T20:59:05.366Z,7.97
2019-03-20T21:01:34.983Z,7.61
2019-03-20T21:04:05.929Z,7.40
2019-03-20T21:06:35.502Z,7.37
2019-03-20T21:09:07.957Z,7.28
2019-03-20T21:11:37.675Z,7.27
2019-03-20T21:14:08.848Z,7.59
2019-03-20T21:16:38.473Z,7.52
2019-03-20T21:19:36.141Z,7.27
2019-03-20T21:22:28.036Z,7.25
2019-03-20T21:24:57.672Z,7.23
2019-03-20T21:28:11.440Z,7.40
2019-03-20T21:30:49.373Z,7.33
2019-03-20T21:33:35.618Z,7.34
2019-03-20T21:36:44.820Z,7.31
2019-03-20T21:39:14.438Z,7.56
2019-03-20T21:42:20.058Z,7.25
2019-03-20T21:45:28.826Z,7.40
2019-03-20T21:47:58.450Z,7.26
2019-03-20T21:50:56.967Z,7.13
2019-03-20T21:53:56.501Z,7.21
2019-03-20T21:56:54.871Z,7.06
2019-03-20T22:00:04.057Z,6.83
2019-03-20T22:02:41.686Z,6.73
2019-03-20T22:05:30.195Z,6.80
2019-03-20T22:07:59.911Z,7.00
2019-03-20T22:10:50.383Z,6.82
2019-03-20T22:13:27.176Z,6.55
2019-03-20T22:16:26.813Z,6.73
2019-03-20T22:19:26.349Z,6.58
2019-03-20T22:22:19.743Z,6.50
2019-03-20T22:25:16.779Z,6.47
2019-03-20T22:28:21.169Z,6.32
2019-03-20T22:30:50.867Z,6.15
2019-03-20T22:33:58.616Z,6.22
2019-03-20T22:36:28.668Z,5.98
2019-03-20T22:39:31.867Z,5.85
2019-03-20T22:42:08.733Z,5.72
2019-03-20T22:44:42.720Z,5.88
2019-03-20T22:47:53.094Z,5.84
2019-03-20T22:50:36.002Z,5.81
2019-03-20T22:53:39.798Z,5.74
2019-03-20T22:56:13.997Z,6.07
2019-03-20T22:58:41.943Z,5.82
2019-03-20T23:01:19.040Z,6.03
2019-03-20T23:04:02.129Z,6.23
2019-03-20T23:06:31.749Z,5.90
2019-03-20T23:09:01.369Z,5.88
2019-03-20T23:11:31.087Z,5.84
2019-03-20T23:14:00.702Z,5.87
2019-03-20T23:16:30.351Z,5.83
2019-03-20T23:18:59.970Z,5.79
2019-03-20T23:21:29.685Z,5.82
2019-03-20T23:23:59.302Z,5.76
2019-03-20T23:26:28.956Z,5.84
2019-03-20T23:28:58.568Z,6.09
2019-03-20T23:31:28.211Z,5.77
2019-03-20T23:33:57.829Z,5.60
2019-03-20T23:36:28.375Z,5.60
2019-03-20T23:38:57.996Z,5.58
2019-03-20T23:41:27.600Z,5.53
2019-03-20T23:43:57.250Z,5.56
2019-03-20T23:46:26.872Z,5.63
2019-03-20T23:49:06.417Z,5.58
2019-03-20T23:51:37.645Z,5.50
2019-03-20T23:54:08.003Z,5.46
2019-03-20T23:56:41.636Z,5.45
2019-03-20T23:59:11.279Z,5.39
